createdAt,value
2023-09-11T00:04:58.389Z,70.38
2023-09-11T00:10:00.522Z,71.01
2023-09-11T00:15:02.820Z,71.10
2023-09-11T00:20:11.613Z,71.30
2023-09-11T00:25:13.866Z,71.48
2023-09-11T00:30:15.956Z,72.12
2023-09-11T00:35:18.152Z,72.92
2023-09-11T00:40:20.325Z,73.25
2023-09-11T00:45:22.587Z,73.44
2023-09-11T00:50:25.860Z,73.67
2023-09-11T00:55:28.816Z,73.83
2023-09-11T01:00:31.478Z,74.02
2023-09-11T01:05:37.099Z,74.33
2023-09-11T01:10:39.278Z,74.72
2023-09-11T01:15:54.303Z,75.19
2023-09-11T01:21:22.777Z,75.53
2023-09-11T01:26:27.674Z,76.05
2023-09-11T01:31:32.975Z,76.44
2023-09-11T01:36:35.212Z,76.91
2023-09-11T01:41:40.886Z,77.29
2023-09-11T01:46:45.450Z,78.11
2023-09-11T01:51:48.567Z,78.45
2023-09-11T01:56:51.264Z,78.94
2023-09-11T02:01:53.518Z,79.10
2023-09-11T02:06:56.013Z,79.44
2023-09-11T02:11:58.238Z,79.53
2023-09-11T02:17:04.133Z,79.75
2023-09-11T02:22:06.453Z,79.90
2023-09-11T02:27:08.531Z,79.77
2023-09-11T02:32:10.619Z,79.77
2023-09-11T02:37:13.130Z,79.90
2023-09-11T02:42:15.320Z,80.10
2023-09-11T02:47:17.406Z,80.09
2023-09-11T02:52:19.928Z,80.39
2023-09-11T02:57:22.234Z,80.45
2023-09-11T03:02:24.343Z,80.78
2023-09-11T03:07:26.580Z,80.37
2023-09-11T03:12:29.263Z,80.93
2023-09-11T03:17:31.875Z,81.59
2023-09-11T03:22:34.156Z,82.00
2023-09-11T03:27:36.279Z,82.04
2023-09-11T03:32:38.538Z,82.23
2023-09-11T03:37:40.736Z,82.90
2023-09-11T03:42:42.846Z,82.82
2023-09-11T03:47:45.098Z,83.08
2023-09-11T03:52:47.327Z,83.27
2023-09-11T03:57:49.531Z,83.63
2023-09-11T04:02:51.759Z,83.62
2023-09-11T04:07:53.987Z,84.16
2023-09-11T04:12:56.131Z,83.94
2023-09-11T04:17:58.693Z,83.96
2023-09-11T04:23:04.371Z,83.91
2023-09-11T04:28:06.645Z,84.18
2023-09-11T04:33:08.879Z,83.83
2023-09-11T04:38:11.353Z,83.58
2023-09-11T04:43:13.450Z,83.37
2023-09-11T04:48:15.733Z,83.59
2023-09-11T04:53:17.976Z,83.09
2023-09-11T04:58:20.311Z,83.04
2023-09-11T05:03:22.574Z,83.11
2023-09-11T05:08:25.041Z,83.15
2023-09-11T05:13:27.176Z,83.15
2023-09-11T05:18:29.351Z,82.87
2023-09-11T05:23:31.475Z,82.31
2023-09-11T05:28:33.769Z,81.54
2023-09-11T05:33:35.995Z,80.79
2023-09-11T05:38:38.284Z,80.19
2023-09-11T05:43:41.656Z,79.30
2023-09-11T05:48:44.151Z,78.62
2023-09-11T05:53:46.596Z,77.71
2023-09-11T05:58:49.004Z,76.97
2023-09-11T06:03:51.597Z,76.42
2023-09-11T06:08:53.818Z,75.58
2023-09-11T06:13:55.929Z,75.24
2023-09-11T06:19:01.422Z,74.60
2023-09-11T06:24:05.854Z,73.88
2023-09-11T06:29:08.016Z,73.37
2023-09-11T06:34:10.145Z,73.25
2023-09-11T06:39:12.307Z,72.58
2023-09-11T06:44:14.477Z,71.77
2023-09-11T06:49:16.602Z,71.50
2023-09-11T06:54:18.732Z,70.85
2023-09-11T06:59:21.140Z,70.80
2023-09-11T07:04:23.410Z,70.33
2023-09-11T07:09:25.630Z,70.18
2023-09-11T07:14:27.946Z,69.69
2023-09-11T07:19:30.087Z,69.35
2023-09-11T07:24:32.308Z,68.52
2023-09-11T07:29:34.516Z,68.43
2023-09-11T07:34:36.634Z,67.70
2023-09-11T07:39:38.697Z,66.72
2023-09-11T07:44:40.841Z,65.90
2023-09-11T07:49:43.047Z,65.41
2023-09-11T07:54:45.354Z,64.80
2023-09-11T07:59:47.450Z,63.99
2023-09-11T08:04:49.616Z,63.16
2023-09-11T08:09:53.466Z,61.67
2023-09-11T08:14:56.880Z,60.72
2023-09-11T08:20:05.140Z,59.78
2023-09-11T08:25:09.014Z,59.09
2023-09-11T08:30:11.471Z,58.10
2023-09-11T08:35:13.684Z,56.83
2023-09-11T08:40:16.425Z,56.90
2023-09-11T08:45:18.539Z,56.08
2023-09-11T08:50:23.451Z,54.47
2023-09-11T08:55:28.886Z,53.09
2023-09-11T09:00:33.330Z,52.87
2023-09-11T09:05:36.723Z,50.68
2023-09-11T09:10:41.008Z,50.46
2023-09-11T09:15:45.958Z,49.17
2023-09-11T09:20:48.330Z,48.53
2023-09-11T09:26:04.056Z,47.22
2023-09-11T09:31:06.761Z,46.10
2023-09-11T09:36:09.004Z,45.18
2023-09-11T09:41:11.954Z,44.18
2023-09-11T09:46:22.323Z,43.87
2023-09-11T09:51:25.957Z,40.66
2023-09-11T09:56:28.373Z,40.95
2023-09-11T10:01:30.566Z,38.78
2023-09-11T10:06:33.488Z,38.12
2023-09-11T10:11:36.830Z,36.57
2023-09-11T10:16:39.254Z,35.42
2023-09-11T10:21:41.439Z,35.01
2023-09-11T10:26:57.890Z,34.22
2023-09-11T10:32:06.748Z,33.23
2023-09-11T10:37:08.925Z,32.90
2023-09-11T10:42:11.880Z,31.24
2023-09-11T10:47:16.866Z,29.36
2023-09-11T10:52:19.454Z,29.83
2023-09-11T10:57:21.618Z,29.75
2023-09-11T11:02:23.884Z,31.21
2023-09-11T11:07:26.195Z,31.20
2023-09-11T11:12:33.708Z,30.46
2023-09-11T11:17:41.621Z,31.05
2023-09-11T11:22:43.799Z,30.70
2023-09-11T11:27:46.176Z,30.87
2023-09-11T11:32:49.738Z,30.83
2023-09-11T11:37:54.191Z,30.33
2023-09-11T11:42:56.657Z,30.65
2023-09-11T11:47:59.197Z,30.34
2023-09-11T11:53:01.401Z,29.47
2023-09-11T11:58:05.634Z,30.02
2023-09-11T12:03:09.555Z,29.93
2023-09-11T12:08:13.472Z,29.76
2023-09-11T12:13:34.678Z,29.12
2023-09-11T12:18:43.086Z,29.44
2023-09-11T12:23:45.506Z,29.82
2023-09-11T12:28:48.993Z,29.48
2023-09-11T12:33:55.521Z,29.10
2023-09-11T12:38:59.565Z,28.96
2023-09-11T12:44:03.087Z,28.62
2023-09-11T12:49:05.974Z,28.49
2023-09-11T12:54:09.197Z,27.85
2023-09-11T12:59:13.958Z,27.66
2023-09-11T13:04:16.059Z,27.41
2023-09-11T13:09:22.397Z,27.40
2023-09-11T13:14:24.577Z,26.19
2023-09-11T13:19:26.724Z,26.52
2023-09-11T13:24:28.941Z,26.98
2023-09-11T13:29:31.102Z,26.19
2023-09-11T13:34:33.385Z,25.88
2023-09-11T13:39:35.508Z,24.74
2023-09-11T13:44:37.825Z,24.91
2023-09-11T13:49:40.081Z,24.00
2023-09-11T13:54:45.595Z,22.96
2023-09-11T13:59:47.840Z,23.86
2023-09-11T14:04:50.067Z,23.22
2023-09-11T14:09:52.877Z,23.10
2023-09-11T14:14:55.121Z,22.66
2023-09-11T14:19:57.418Z,22.66
2023-09-11T14:25:00.732Z,22.59
2023-09-11T14:30:03.538Z,22.22
2023-09-11T14:35:06.247Z,21.76
2023-09-11T14:40:09.333Z,19.93
2023-09-11T14:45:12.131Z,16.12
2023-09-11T14:50:15.178Z,14.69
2023-09-11T14:55:17.299Z,18.26
2023-09-11T15:00:19.727Z,20.92
2023-09-11T15:05:22.232Z,22.75
2023-09-11T15:10:24.450Z,23.86
2023-09-11T15:15:26.624Z,25.19
2023-09-11T15:20:29.189Z,26.39
2023-09-11T15:25:31.399Z,27.16
2023-09-11T15:30:38.599Z,26.83
2023-09-11T15:36:03.038Z,26.21
2023-09-11T15:41:06.322Z,27.60
2023-09-11T15:46:11.733Z,28.36
2023-09-11T15:51:13.953Z,29.10
2023-09-11T15:56:16.233Z,29.64
2023-09-11T16:01:19.150Z,30.23
2023-09-11T16:06:21.328Z,30.46
2023-09-11T16:11:23.550Z,30.98
2023-09-11T16:16:25.810Z,31.18
2023-09-11T16:21:39.588Z,31.71
2023-09-11T16:26:43.332Z,32.42
2023-09-11T16:31:46.030Z,32.96
2023-09-11T16:36:48.235Z,33.46
2023-09-11T16:41:50.392Z,34.31
2023-09-11T16:46:52.508Z,35.57
2023-09-11T16:51:54.743Z,36.01
2023-09-11T16:56:56.930Z,36.91
2023-09-11T17:02:01.075Z,37.73
2023-09-11T17:07:03.349Z,38.39
2023-09-11T17:12:05.903Z,39.11
2023-09-11T17:17:08.094Z,39.62
2023-09-11T17:22:10.366Z,40.15
2023-09-11T17:27:12.691Z,40.81
2023-09-11T17:32:14.867Z,41.57
2023-09-11T17:37:17.512Z,42.31
2023-09-11T17:42:19.944Z,42.94
2023-09-11T17:47:22.126Z,43.81
2023-09-11T17:52:24.356Z,44.20
2023-09-11T17:57:26.591Z,44.57
2023-09-11T18:02:28.834Z,45.10
2023-09-11T18:07:30.940Z,45.70
2023-09-11T18:12:33.806Z,46.39
2023-09-11T18:17:35.967Z,47.01
2023-09-11T18:22:38.163Z,47.67
2023-09-11T18:27:40.375Z,48.06
2023-09-11T18:32:42.530Z,48.74
2023-09-11T18:37:44.715Z,49.42
2023-09-11T18:42:46.885Z,49.91
2023-09-11T18:47:50.047Z,50.47
2023-09-11T18:52:54.535Z,50.86
2023-09-11T18:57:56.638Z,51.48
2023-09-11T19:02:58.988Z,51.73
2023-09-11T19:08:01.230Z,52.51
2023-09-11T19:13:03.753Z,52.44
2023-09-11T19:18:06.259Z,53.24
2023-09-11T19:23:08.503Z,53.48
2023-09-11T19:28:10.645Z,53.95
2023-09-11T19:33:13.060Z,54.44
2023-09-11T19:38:15.302Z,55.08
2023-09-11T19:43:17.492Z,55.21
2023-09-11T19:48:19.785Z,55.72
2023-09-11T19:53:21.992Z,56.09
2023-09-11T19:58:24.138Z,56.21
2023-09-11T20:03:26.545Z,56.74
2023-09-11T20:08:28.759Z,56.95
2023-09-11T20:13:31.237Z,57.41
2023-09-11T20:18:33.503Z,57.59
2023-09-11T20:23:35.735Z,57.75
2023-09-11T20:28:37.829Z,57.69
2023-09-11T20:33:44.342Z,57.84
2023-09-11T20:38:49.521Z,58.29
2023-09-11T20:43:51.681Z,58.04
2023-09-11T20:48:53.873Z,58.80
2023-09-11T20:53:56.078Z,58.99
2023-09-11T20:58:58.195Z,59.02
2023-09-11T21:04:00.718Z,59.33
2023-09-11T21:09:02.963Z,59.81
2023-09-11T21:14:05.191Z,60.57
2023-09-11T21:19:07.357Z,60.88
2023-09-11T21:29:11.796Z,62.33
2023-09-11T21:34:13.957Z,62.73
2023-09-11T21:39:16.265Z,62.89
2023-09-11T21:44:18.453Z,62.99
2023-09-11T21:49:20.642Z,64.07
2023-09-11T21:54:24.769Z,64.57
2023-09-11T21:59:29.384Z,65.14
2023-09-11T22:04:32.485Z,64.62
2023-09-11T22:09:34.614Z,63.27
2023-09-11T22:14:36.722Z,63.41
2023-09-11T22:19:38.845Z,63.59
2023-09-11T22:24:41.027Z,63.61
2023-09-11T22:29:43.179Z,64.11
2023-09-11T22:34:45.763Z,63.77
2023-09-11T22:39:48.135Z,64.07
2023-09-11T22:44:50.945Z,63.76
2023-09-11T22:49:53.107Z,63.99
2023-09-11T22:54:55.228Z,64.17
2023-09-11T23:00:00.371Z,64.72
2023-09-11T23:05:03.556Z,65.01
2023-09-11T23:10:06.404Z,65.25
2023-09-11T23:15:08.824Z,65.42
2023-09-11T23:20:14.411Z,65.95
2023-09-11T23:25:16.741Z,66.28
2023-09-11T23:30:19.007Z,66.31
2023-09-11T23:35:21.279Z,66.46
2023-09-11T23:40:23.368Z,66.94
2023-09-11T23:45:25.720Z,67.58
2023-09-11T23:50:27.878Z,67.70
2023-09-11T23:55:30.066Z,68.33
